createdAt,value
2019-04-23T00:01:11.095Z,2.17
2019-04-23T00:03:35.696Z,1.87
2019-04-23T00:06:07.320Z,1.80
2019-04-23T00:08:44.372Z,2.20
2019-04-23T00:11:08.694Z,2.17
2019-04-23T00:13:38.740Z,1.97
2019-04-23T00:16:26.552Z,2.47
2019-04-23T00:21:20.647Z,2.10
2019-04-23T00:24:03.106Z,2.40
2019-04-23T00:26:30.542Z,2.13
2019-04-23T00:29:00.471Z,2.20
2019-04-23T00:31:31.436Z,2.40
2019-04-23T00:34:07.227Z,2.40
2019-04-23T00:36:36.418Z,3.33
2019-04-23T00:39:18.801Z,2.40
2019-04-23T00:41:40.507Z,2.27
2019-04-23T00:46:35.213Z,2.40
2019-04-23T00:51:42.697Z,2.00
2019-04-23T00:54:12.170Z,2.97
2019-04-23T00:56:50.814Z,2.40
2019-04-23T00:59:12.586Z,2.17
2019-04-23T01:01:50.217Z,2.70
2019-04-23T01:04:22.878Z,2.77
2019-04-23T01:06:54.903Z,3.20
2019-04-23T01:09:22.673Z,2.63
2019-04-23T01:11:49.718Z,2.30
2019-04-23T01:14:20.239Z,2.20
2019-04-23T01:16:55.968Z,2.77
2019-04-23T01:19:37.123Z,2.60
2019-04-23T01:21:45.732Z,2.93
2019-04-23T01:24:25.861Z,2.40
2019-04-23T01:30:05.086Z,2.77
2019-04-23T01:35:15.343Z,2.37
2019-04-23T01:37:36.978Z,2.40
2019-04-23T01:40:12.365Z,2.60
2019-04-23T01:42:40.691Z,2.50
2019-04-23T01:45:13.317Z,2.40
2019-04-23T01:47:46.039Z,2.37
2019-04-23T01:50:21.824Z,3.10
2019-04-23T01:52:55.053Z,2.80
2019-04-23T01:55:24.214Z,2.20
2019-04-23T01:57:58.554Z,2.57
2019-04-23T02:00:22.861Z,2.60
2019-04-23T02:02:55.459Z,2.53
2019-04-23T02:07:56.957Z,2.70
2019-04-23T02:10:44.350Z,2.73
2019-04-23T02:13:05.586Z,2.57
2019-04-23T02:15:31.262Z,2.57
2019-04-23T02:18:18.051Z,2.70
2019-04-23T02:20:52.596Z,2.53
2019-04-23T02:25:54.016Z,2.37
2019-04-23T02:28:32.961Z,3.00
2019-04-23T02:36:31.688Z,2.80
2019-04-23T02:38:46.161Z,2.57
2019-04-23T02:41:16.437Z,2.70
2019-04-23T02:43:35.639Z,2.73
2019-04-23T02:51:17.591Z,2.53
2019-04-23T02:56:30.929Z,2.60
2019-04-23T03:01:25.657Z,2.53
2019-04-23T03:06:27.074Z,2.30
2019-04-23T03:08:49.210Z,2.83
2019-04-23T03:11:30.622Z,2.50
2019-04-23T03:16:53.206Z,2.90
2019-04-23T03:22:03.781Z,2.50
2019-04-23T03:25:05.216Z,2.33
2019-04-23T03:27:23.386Z,2.33
2019-04-23T03:29:55.304Z,3.17
2019-04-23T03:47:32.016Z,3.10
2019-04-23T03:50:04.580Z,2.80
2019-04-23T03:52:36.328Z,3.23
2019-04-23T03:57:30.610Z,2.67
2019-04-23T04:02:54.750Z,3.27
2019-04-23T04:05:17.880Z,2.80
2019-04-23T04:07:49.382Z,3.10
2019-04-23T04:10:16.290Z,3.20
2019-04-23T04:12:39.321Z,2.80
2019-04-23T04:15:33.594Z,2.70
2019-04-23T04:17:48.626Z,2.90
2019-04-23T04:20:24.798Z,2.77
2019-04-23T04:22:59.212Z,3.00
2019-04-23T04:25:26.934Z,2.73
2019-04-23T04:30:27.228Z,2.50
2019-04-23T04:33:23.988Z,2.97
2019-04-23T04:38:31.519Z,2.60
2019-04-23T04:40:42.434Z,3.07
2019-04-23T04:43:22.485Z,3.20
2019-04-23T04:45:42.330Z,2.90
2019-04-23T04:48:19.979Z,3.00
2019-04-23T04:50:45.859Z,3.07
2019-04-23T04:53:16.908Z,2.70
2019-04-23T04:55:50.148Z,2.73
2019-04-23T04:58:04.592Z,2.63
2019-04-23T05:00:54.708Z,2.40
2019-04-23T05:08:21.679Z,3.40
2019-04-23T05:15:51.834Z,3.03
2019-04-23T05:18:47.413Z,3.10
2019-04-23T05:21:38.832Z,2.40
2019-04-23T05:23:50.383Z,3.40
2019-04-23T05:26:48.139Z,3.00
2019-04-23T05:29:01.973Z,2.97
2019-04-23T05:33:59.909Z,2.97
2019-04-23T05:36:41.005Z,3.27
2019-04-23T05:39:12.136Z,3.10
2019-04-23T05:41:30.650Z,3.17
2019-04-23T05:44:03.642Z,3.10
2019-04-23T05:49:00.135Z,3.13
2019-04-23T05:51:40.113Z,3.30
2019-04-23T05:54:08.711Z,2.97
2019-04-23T05:56:36.885Z,3.30
2019-04-23T06:07:11.476Z,3.10
2019-04-23T06:09:14.686Z,3.50
2019-04-23T06:14:23.705Z,2.90
2019-04-23T06:19:22.714Z,3.30
2019-04-23T06:22:10.707Z,3.73
2019-04-23T06:24:35.092Z,3.40
2019-04-23T06:29:52.874Z,3.07
2019-04-23T06:32:02.258Z,3.07
2019-04-23T06:34:43.624Z,2.93
2019-04-23T06:37:36.182Z,2.93
2019-04-23T06:40:08.455Z,3.17
2019-04-23T06:42:29.591Z,3.20
2019-04-23T06:44:56.135Z,3.07
2019-04-23T06:47:26.237Z,2.97
2019-04-23T06:49:58.142Z,3.40
2019-04-23T06:52:25.172Z,3.20
2019-04-23T06:57:39.756Z,3.37
2019-04-23T07:00:10.202Z,3.20
2019-04-23T07:02:37.561Z,3.40
2019-04-23T07:05:15.834Z,3.50
2019-04-23T07:10:16.580Z,2.97
2019-04-23T07:15:30.958Z,3.77
2019-04-23T07:17:39.675Z,3.37
2019-04-23T07:20:20.145Z,3.30
2019-04-23T07:22:53.730Z,3.40
2019-04-23T07:25:26.869Z,3.50
2019-04-23T07:27:51.087Z,4.30
2019-04-23T07:30:39.990Z,4.20
2019-04-23T07:33:11.370Z,3.50
2019-04-23T07:35:49.479Z,4.17
2019-04-23T07:38:44.279Z,3.40
2019-04-23T07:41:23.654Z,3.50
2019-04-23T07:47:09.861Z,3.90
2019-04-23T07:49:27.396Z,3.80
2019-04-23T07:52:06.253Z,3.47
2019-04-23T07:54:30.571Z,3.80
2019-04-23T07:57:07.570Z,3.70
2019-04-23T07:59:41.349Z,4.00
2019-04-23T08:02:12.837Z,3.93
2019-04-23T08:04:35.486Z,4.27
2019-04-23T08:07:01.268Z,3.50
2019-04-23T08:09:43.975Z,4.37
2019-04-23T08:12:11.590Z,3.33
2019-04-23T08:14:40.462Z,6.10
2019-04-23T08:17:12.555Z,4.17
2019-04-23T08:19:49.615Z,3.70
2019-04-23T08:25:11.023Z,4.07
2019-04-23T08:27:46.851Z,2.80
2019-04-23T08:30:10.883Z,3.87
2019-04-23T08:32:52.197Z,3.73
2019-04-23T08:35:33.891Z,3.20
2019-04-23T08:38:00.965Z,3.73
2019-04-23T08:42:58.899Z,4.07
2019-04-23T08:45:29.766Z,3.47
2019-04-23T08:50:57.979Z,4.00
2019-04-23T08:53:36.772Z,3.80
2019-04-23T08:56:05.093Z,4.13
2019-04-23T08:58:34.272Z,3.47
2019-04-23T09:01:12.359Z,3.10
2019-04-23T09:03:34.851Z,3.10
2019-04-23T09:08:39.237Z,3.67
2019-04-23T09:16:31.277Z,3.57
2019-04-23T09:19:04.096Z,4.07
2019-04-23T09:21:30.968Z,3.50
2019-04-23T09:23:59.014Z,3.90
2019-04-23T09:26:33.088Z,3.30
2019-04-23T09:29:10.430Z,3.23
2019-04-23T09:35:08.661Z,3.33
2019-04-23T09:48:51.261Z,3.07
2019-04-23T09:51:17.416Z,2.77
2019-04-23T09:53:51.392Z,2.93
2019-04-23T09:56:28.573Z,3.70
2019-04-23T09:58:55.460Z,3.80
2019-04-23T10:01:25.887Z,5.00
2019-04-23T10:03:47.553Z,3.50
2019-04-23T10:06:14.559Z,3.97
2019-04-23T10:08:46.450Z,4.50
2019-04-23T10:11:11.269Z,3.80
2019-04-23T10:13:42.845Z,3.27
2019-04-23T10:16:17.065Z,4.10
2019-04-23T10:18:44.914Z,3.50
2019-04-23T10:21:15.551Z,4.00
2019-04-23T10:23:45.320Z,3.70
2019-04-23T10:26:16.432Z,3.90
2019-04-23T10:29:00.200Z,4.30
2019-04-23T10:31:31.330Z,4.27
2019-04-23T10:34:04.959Z,3.50
2019-04-23T10:36:38.207Z,3.63
2019-04-23T10:39:15.495Z,3.33
2019-04-23T10:41:42.491Z,4.23
2019-04-23T10:44:37.998Z,4.17
2019-04-23T10:50:51.405Z,3.70
2019-04-23T10:58:16.861Z,4.00
2019-04-23T11:00:53.532Z,4.43
2019-04-23T11:08:23.991Z,4.47
2019-04-23T11:10:58.932Z,3.63
2019-04-23T11:18:53.572Z,4.07
2019-04-23T11:21:17.873Z,4.50
2019-04-23T11:23:40.938Z,4.40
2019-04-23T11:26:17.431Z,4.37
2019-04-23T11:31:33.784Z,4.03
2019-04-23T11:34:01.018Z,4.07
2019-04-23T11:36:49.859Z,4.30
2019-04-23T11:41:34.282Z,4.67
2019-04-23T11:44:02.337Z,5.00
2019-04-23T11:50:59.849Z,4.47
2019-04-23T11:54:10.890Z,4.20
2019-04-23T11:59:22.879Z,3.67
2019-04-23T12:04:55.585Z,3.73
2019-04-23T12:07:34.865Z,4.90
2019-04-23T12:10:26.898Z,3.43
2019-04-23T12:12:40.956Z,3.40
2019-04-23T12:15:30.446Z,3.70
2019-04-23T12:17:50.979Z,4.73
2019-04-23T12:20:28.984Z,5.13
2019-04-23T12:23:08.293Z,4.53
2019-04-23T12:25:27.920Z,4.10
2019-04-23T12:27:42.216Z,4.57
2019-04-23T12:30:39.615Z,4.83
2019-04-23T12:33:12.446Z,4.27
2019-04-23T12:35:35.209Z,4.10
2019-04-23T12:38:13.931Z,3.93
2019-04-23T12:40:44.248Z,4.03
2019-04-23T12:43:14.516Z,4.43
2019-04-23T12:45:57.761Z,4.80
2019-04-23T12:48:36.789Z,3.93
2019-04-23T12:55:51.259Z,4.20
2019-04-23T12:58:24.792Z,5.23
2019-04-23T13:00:52.759Z,11.50
2019-04-23T13:03:29.891Z,5.80
2019-04-23T13:05:55.423Z,4.27
2019-04-23T13:11:21.853Z,3.60
2019-04-23T13:13:37.732Z,4.10
2019-04-23T13:16:25.330Z,4.37
2019-04-23T13:18:38.135Z,6.53
2019-04-23T13:21:22.002Z,5.07
2019-04-23T13:23:39.166Z,5.23
2019-04-23T13:26:08.946Z,13.67
2019-04-23T13:28:45.194Z,5.07
2019-04-23T13:31:18.133Z,4.90
2019-04-23T13:33:49.974Z,4.87
2019-04-23T13:41:23.401Z,4.20
2019-04-23T13:44:21.409Z,3.80
2019-04-23T13:46:32.695Z,4.30
2019-04-23T13:49:01.731Z,4.00
2019-04-23T13:51:30.593Z,4.47
2019-04-23T13:54:13.871Z,4.80
2019-04-23T13:56:55.808Z,4.60
2019-04-23T13:59:26.388Z,4.63
2019-04-23T14:04:33.428Z,4.50
2019-04-23T14:09:39.476Z,9.57
2019-04-23T14:11:51.245Z,6.33
2019-04-23T14:14:43.249Z,5.40
2019-04-23T14:17:08.755Z,4.20
2019-04-23T14:19:43.380Z,3.83
2019-04-23T14:22:21.057Z,4.37
2019-04-23T14:27:14.914Z,4.33
2019-04-23T14:29:48.217Z,4.77
2019-04-23T14:32:15.611Z,3.93
2019-04-23T14:34:54.705Z,3.60
2019-04-23T14:39:47.773Z,4.30
2019-04-23T14:42:30.967Z,4.50
2019-04-23T14:45:08.114Z,4.53
2019-04-23T14:47:28.322Z,4.47
2019-04-23T14:50:29.418Z,4.40
2019-04-23T14:57:42.509Z,3.93
2019-04-23T15:00:09.274Z,4.17
2019-04-23T15:02:46.538Z,4.10
2019-04-23T15:05:13.075Z,4.30
2019-04-23T15:07:42.475Z,8.30
2019-04-23T15:10:23.213Z,7.37
2019-04-23T15:12:45.763Z,7.23
2019-04-23T15:17:56.046Z,7.03
2019-04-23T15:20:28.733Z,8.83
2019-04-23T15:26:20.046Z,4.83
2019-04-23T15:30:41.989Z,4.40
2019-04-23T15:35:57.554Z,4.53
2019-04-23T15:40:42.936Z,4.27
2019-04-23T15:45:52.484Z,4.40
2019-04-23T15:50:53.728Z,4.70
2019-04-23T15:53:15.633Z,4.57
2019-04-23T15:56:01.001Z,5.10
2019-04-23T16:01:25.413Z,5.20
2019-04-23T16:03:21.699Z,4.60
2019-04-23T16:05:53.157Z,4.20
2019-04-23T16:19:19.007Z,3.33
2019-04-23T16:24:19.395Z,4.50
2019-04-23T16:29:44.154Z,4.47
2019-04-23T16:34:33.250Z,4.60
2019-04-23T16:37:15.574Z,4.33
2019-04-23T16:39:48.740Z,5.30
2019-04-23T16:44:56.928Z,4.23
2019-04-23T16:47:43.246Z,4.30
2019-04-23T16:50:10.905Z,4.30
2019-04-23T16:52:43.878Z,3.80
2019-04-23T16:55:18.438Z,3.73
2019-04-23T16:57:52.569Z,3.33
2019-04-23T17:00:22.934Z,3.00
2019-04-23T17:02:45.164Z,3.40
2019-04-23T17:05:20.055Z,4.00
2019-04-23T17:08:08.977Z,4.10
2019-04-23T17:10:23.958Z,4.03
2019-04-23T17:12:54.751Z,4.40
2019-04-23T17:15:27.475Z,4.00
2019-04-23T17:17:55.843Z,4.07
2019-04-23T17:20:31.256Z,3.83
2019-04-23T17:23:05.164Z,3.73
2019-04-23T17:25:28.441Z,4.40
2019-04-23T17:28:11.436Z,4.30
2019-04-23T17:30:34.168Z,4.46
2019-04-23T17:33:13.911Z,4.07
2019-04-23T17:36:15.200Z,4.13
2019-04-23T17:38:42.688Z,4.40
2019-04-23T17:41:17.740Z,4.70
2019-04-23T17:43:54.537Z,3.70
2019-04-23T17:46:14.331Z,4.40
2019-04-23T17:48:52.137Z,4.28
2019-04-23T17:51:19.447Z,3.77
2019-04-23T17:53:54.730Z,4.70
2019-04-23T17:59:00.443Z,5.00
2019-04-23T18:01:27.834Z,4.23
2019-04-23T18:04:21.164Z,4.27
2019-04-23T18:06:50.849Z,4.40
2019-04-23T18:11:44.935Z,4.53
2019-04-23T18:14:07.159Z,4.30
2019-04-23T18:19:13.161Z,4.70
2019-04-23T18:21:55.378Z,4.80
2019-04-23T18:24:36.561Z,5.43
2019-04-23T18:27:11.891Z,5.03
2019-04-23T18:30:01.092Z,4.47
2019-04-23T18:32:32.854Z,4.40
2019-04-23T18:35:15.382Z,5.13
2019-04-23T18:37:38.012Z,5.03
2019-04-23T18:40:21.067Z,5.00
2019-04-23T18:42:46.371Z,5.07
2019-04-23T18:45:20.257Z,4.57
2019-04-23T18:47:45.865Z,4.77
2019-04-23T18:50:17.615Z,4.90
2019-04-23T18:55:29.433Z,5.20
2019-04-23T18:57:50.455Z,5.03
2019-04-23T19:00:27.200Z,4.87
2019-04-23T19:03:10.982Z,4.83
2019-04-23T19:06:05.226Z,4.03
2019-04-23T19:11:40.334Z,4.70
2019-04-23T19:13:47.766Z,4.47
2019-04-23T19:16:31.561Z,5.20
2019-04-23T19:19:02.662Z,4.47
2019-04-23T19:21:46.132Z,5.37
2019-04-23T19:23:59.487Z,4.83
2019-04-23T19:26:59.582Z,5.17
2019-04-23T19:29:00.328Z,5.27
2019-04-23T19:31:56.692Z,5.10
2019-04-23T19:37:06.069Z,5.20
2019-04-23T19:42:18.018Z,6.07
2019-04-23T19:52:14.416Z,5.47
2019-04-23T19:54:52.608Z,5.30
2019-04-23T19:57:19.013Z,5.33
2019-04-23T20:04:56.072Z,5.57
2019-04-23T20:12:36.738Z,5.13
2019-04-23T20:15:00.027Z,5.07
2019-04-23T20:20:04.431Z,5.30
2019-04-23T20:22:47.302Z,5.83
2019-04-23T20:27:52.414Z,4.98
2019-04-23T20:35:55.674Z,5.40
2019-04-23T20:41:06.319Z,5.47
2019-04-23T20:43:32.723Z,5.87
2019-04-23T20:45:58.914Z,5.40
2019-04-23T20:48:32.413Z,5.65
2019-04-23T20:50:56.245Z,5.63
2019-04-23T20:53:40.334Z,5.33
2019-04-23T20:56:10.064Z,5.77
2019-04-23T21:01:44.084Z,5.83
2019-04-23T21:04:17.622Z,5.40
2019-04-23T21:06:46.490Z,5.53
2019-04-23T21:11:49.821Z,5.30
2019-04-23T21:14:39.428Z,5.57
2019-04-23T21:16:46.671Z,6.13
2019-04-23T21:22:14.038Z,5.13
2019-04-23T21:24:49.271Z,5.50
2019-04-23T21:27:40.639Z,6.00
2019-04-23T21:30:03.552Z,6.40
2019-04-23T21:32:43.210Z,6.27
2019-04-23T21:35:07.705Z,6.50
2019-04-23T21:37:50.009Z,5.97
2019-04-23T21:43:16.285Z,5.90
2019-04-23T21:45:56.884Z,5.53
2019-04-23T21:48:27.641Z,6.00
2019-04-23T21:50:49.050Z,6.00
2019-04-23T21:53:14.800Z,6.00
2019-04-23T21:58:26.188Z,5.20
2019-04-23T22:01:11.854Z,6.37
2019-04-23T22:03:49.526Z,6.03
2019-04-23T22:06:09.840Z,6.10
2019-04-23T22:08:41.292Z,5.50
2019-04-23T22:11:25.248Z,5.60
2019-04-23T22:13:53.721Z,5.40
2019-04-23T22:18:55.923Z,6.23
2019-04-23T22:21:14.382Z,5.47
2019-04-23T22:23:58.262Z,5.05
2019-04-23T22:26:33.510Z,5.50
2019-04-23T22:29:05.188Z,5.30
2019-04-23T22:34:01.943Z,5.90
2019-04-23T22:36:32.102Z,5.50
2019-04-23T22:39:03.165Z,5.80
2019-04-23T22:41:36.285Z,4.97
2019-04-23T22:46:50.380Z,5.53
2019-04-23T22:49:20.054Z,5.80
2019-04-23T22:51:51.493Z,5.30
2019-04-23T22:54:12.170Z,5.40
2019-04-23T22:56:51.917Z,5.87
2019-04-23T23:01:54.717Z,5.20
2019-04-23T23:04:20.283Z,5.33
2019-04-23T23:09:27.388Z,4.83
2019-04-23T23:16:57.196Z,4.97
2019-04-23T23:19:45.106Z,5.17
2019-04-23T23:22:01.909Z,5.10
2019-04-23T23:24:25.404Z,5.03
2019-04-23T23:26:57.127Z,4.40
2019-04-23T23:29:42.626Z,4.20
2019-04-23T23:32:09.288Z,4.83
2019-04-23T23:34:48.236Z,4.70
2019-04-23T23:37:07.479Z,4.37
2019-04-23T23:42:16.475Z,4.90
2019-04-23T23:47:15.172Z,4.87
2019-04-23T23:49:56.879Z,4.93
2019-04-23T23:52:25.419Z,4.90
2019-04-23T23:54:52.641Z,4.50
2019-04-23T23:57:23.401Z,4.60
